createdAt,value
2017-12-06T00:00:52.881Z,7.50
2017-12-06T00:03:20.332Z,12.73
2017-12-06T00:05:48.111Z,14.90
2017-12-06T00:08:15.561Z,12.77
2017-12-06T00:10:43.012Z,18.47
2017-12-06T00:16:15.188Z,22.07
2017-12-06T00:18:42.947Z,13.97
2017-12-06T00:21:10.413Z,15.97
2017-12-06T00:23:37.865Z,20.10
2017-12-06T00:26:05.888Z,11.60
2017-12-06T00:28:33.330Z,19.10
2017-12-06T00:31:00.776Z,21.53
2017-12-06T00:33:28.578Z,17.77
2017-12-06T00:35:56.024Z,19.00
2017-12-06T00:38:23.478Z,20.60
2017-12-06T00:40:51.261Z,18.33
2017-12-06T00:43:18.721Z,26.83
2017-12-06T00:45:46.170Z,15.43
2017-12-06T00:48:15.487Z,14.37
2017-12-06T00:50:42.941Z,18.60
2017-12-06T00:53:10.392Z,13.77
2017-12-06T00:55:38.183Z,11.73
2017-12-06T00:58:05.645Z,20.40
2017-12-06T01:00:33.110Z,13.60
2017-12-06T01:03:00.857Z,17.13
2017-12-06T01:05:28.309Z,14.67
2017-12-06T01:07:55.758Z,11.37
2017-12-06T01:10:23.557Z,14.23
2017-12-06T01:12:51.009Z,15.30
2017-12-06T01:15:18.458Z,15.73
2017-12-06T01:17:46.854Z,9.20
2017-12-06T01:20:14.293Z,21.17
2017-12-06T01:22:41.732Z,16.60
2017-12-06T01:25:09.536Z,13.80
2017-12-06T01:27:36.984Z,18.33
2017-12-06T01:30:04.437Z,16.27
2017-12-06T01:32:32.171Z,9.17
2017-12-06T01:34:59.634Z,19.63
2017-12-06T02:34:33.750Z,22.93
2017-12-06T02:37:01.211Z,24.53
2017-12-06T02:39:40.525Z,24.93
2017-12-06T02:45:28.096Z,17.97
2017-12-06T02:47:55.545Z,23.10
2017-12-06T02:50:24.886Z,23.70
2017-12-06T02:52:52.626Z,16.80
2017-12-06T02:55:20.094Z,16.00
2017-12-06T02:57:47.779Z,15.03
2017-12-06T03:00:15.620Z,9.20
2017-12-06T03:02:43.069Z,16.10
2017-12-06T03:05:10.529Z,23.80
2017-12-06T03:07:38.309Z,23.50
2017-12-06T03:10:05.770Z,20.53
2017-12-06T03:12:33.220Z,15.67
2017-12-06T03:15:01.005Z,15.40
2017-12-06T03:17:28.460Z,14.63
2017-12-06T03:19:55.906Z,21.37
2017-12-06T03:22:23.534Z,10.27
2017-12-06T03:24:50.982Z,23.60
2017-12-06T03:27:18.442Z,14.07
2017-12-06T03:29:46.112Z,19.23
2017-12-06T03:32:13.576Z,16.70
2017-12-06T03:34:43.213Z,15.43
2017-12-06T03:37:10.905Z,19.53
2017-12-06T03:39:38.358Z,20.93
2017-12-06T03:42:05.810Z,18.70
2017-12-06T03:44:33.893Z,24.70
2017-12-06T03:47:01.346Z,13.90
2017-12-06T03:49:28.792Z,17.20
2017-12-06T03:51:56.581Z,7.27
2017-12-06T03:54:24.040Z,20.80
2017-12-06T03:56:51.498Z,13.57
2017-12-06T03:59:19.299Z,18.63
2017-12-06T04:01:46.754Z,16.60
2017-12-06T04:04:14.206Z,19.90
2017-12-06T04:06:42.261Z,17.17
2017-12-06T04:09:09.713Z,19.23
2017-12-06T04:11:37.161Z,13.17
2017-12-06T04:14:05.210Z,15.63
2017-12-06T04:16:32.666Z,15.50
2017-12-06T04:19:00.122Z,17.23
2017-12-06T04:21:27.953Z,23.87
2017-12-06T04:23:55.409Z,17.23
2017-12-06T04:26:22.862Z,14.97
2017-12-06T04:28:50.658Z,14.50
2017-12-06T04:31:18.114Z,16.53
2017-12-06T04:33:45.558Z,11.30
2017-12-06T04:36:13.600Z,15.17
2017-12-06T04:38:49.642Z,21.90
2017-12-06T04:41:17.715Z,22.70
2017-12-06T04:43:45.175Z,12.63
2017-12-06T04:46:12.642Z,12.40
2017-12-06T04:48:40.462Z,25.00
2017-12-06T04:51:07.914Z,21.67
2017-12-06T04:53:35.364Z,14.97
2017-12-06T04:56:03.133Z,21.30
2017-12-06T04:58:30.585Z,20.57
2017-12-06T05:00:58.025Z,13.87
2017-12-06T05:03:25.831Z,18.10
2017-12-06T05:05:53.300Z,8.87
2017-12-06T05:08:20.745Z,20.10
2017-12-06T05:10:48.701Z,17.83
2017-12-06T05:13:16.163Z,13.23
2017-12-06T05:15:43.613Z,21.63
2017-12-06T05:18:11.510Z,13.60
2017-12-06T05:20:38.973Z,13.93
2017-12-06T05:23:06.428Z,12.83
2017-12-06T05:25:34.205Z,12.87
2017-12-06T05:28:01.654Z,17.30
2017-12-06T05:30:29.106Z,15.97
2017-12-06T05:32:57.192Z,11.70
2017-12-06T05:35:24.673Z,21.10
2017-12-06T05:37:52.794Z,10.53
2017-12-06T05:40:20.791Z,13.83
2017-12-06T05:42:48.239Z,15.43
2017-12-06T05:45:15.730Z,16.50
2017-12-06T05:47:43.361Z,9.03
2017-12-06T05:50:10.814Z,17.13
2017-12-06T05:52:38.255Z,15.30
2017-12-06T05:55:05.988Z,13.43
2017-12-06T05:57:33.433Z,17.83
2017-12-06T06:00:00.886Z,17.77
2017-12-06T06:02:28.542Z,14.33
2017-12-06T06:04:56.001Z,17.53
2017-12-06T06:07:23.444Z,17.30
2017-12-06T06:09:51.231Z,15.47
2017-12-06T06:12:18.680Z,14.93
2017-12-06T06:14:46.136Z,17.73
2017-12-06T06:17:13.918Z,19.60
2017-12-06T06:19:41.369Z,14.57
2017-12-06T06:22:08.825Z,23.17
2017-12-06T06:24:36.869Z,20.63
2017-12-06T06:27:04.318Z,16.73
2017-12-06T06:29:31.777Z,17.83
2017-12-06T06:31:59.905Z,12.17
2017-12-06T06:34:27.358Z,16.83
2017-12-06T06:36:54.805Z,11.27
2017-12-06T06:39:24.262Z,15.23
2017-12-06T06:41:51.718Z,18.70
2017-12-06T06:44:19.166Z,14.07
2017-12-06T06:46:47.139Z,23.17
2017-12-06T06:49:14.589Z,15.23
2017-12-06T06:51:42.056Z,18.27
2017-12-06T06:54:10.123Z,21.23
2017-12-06T06:56:37.572Z,20.73
2017-12-06T06:59:05.017Z,18.37
2017-12-06T07:01:32.825Z,18.60
2017-12-06T07:04:00.274Z,20.77
2017-12-06T07:06:27.721Z,16.40
2017-12-06T07:08:55.501Z,22.30
2017-12-06T07:11:22.957Z,18.50
2017-12-06T07:13:50.417Z,24.63
2017-12-06T07:16:18.188Z,21.67
2017-12-06T07:18:45.646Z,21.33
2017-12-06T07:21:13.102Z,18.70
2017-12-06T07:23:40.869Z,14.77
2017-12-06T07:26:08.316Z,13.43
2017-12-06T07:28:35.775Z,13.27
2017-12-06T07:31:03.413Z,23.73
2017-12-06T07:33:30.861Z,11.10
2017-12-06T07:35:58.307Z,12.87
2017-12-06T07:38:26.257Z,9.63
2017-12-06T07:40:53.821Z,16.50
2017-12-06T07:43:21.277Z,29.57
2017-12-06T07:45:49.243Z,23.87
2017-12-06T07:48:16.693Z,16.97
2017-12-06T07:50:44.144Z,22.67
2017-12-06T07:53:11.970Z,12.20
2017-12-06T07:55:39.426Z,22.83
2017-12-06T07:58:06.877Z,23.83
2017-12-06T08:00:34.589Z,13.93
2017-12-06T08:03:02.034Z,18.57
2017-12-06T08:05:29.485Z,9.53
2017-12-06T08:07:57.305Z,12.77
2017-12-06T08:10:24.762Z,27.57
2017-12-06T08:12:52.212Z,14.13
2017-12-06T08:15:20.294Z,17.43
2017-12-06T08:17:47.753Z,17.90
2017-12-06T08:20:15.204Z,26.30
2017-12-06T08:22:42.975Z,14.53
2017-12-06T08:25:10.430Z,16.23
2017-12-06T08:27:37.882Z,13.63
2017-12-06T08:30:05.670Z,17.43
2017-12-06T08:32:33.130Z,14.87
2017-12-06T08:35:00.598Z,20.00
2017-12-06T08:37:28.348Z,20.90
2017-12-06T08:39:55.837Z,14.43
2017-12-06T08:42:23.951Z,14.67
2017-12-06T08:44:51.667Z,16.43
2017-12-06T08:47:19.123Z,17.53
2017-12-06T08:49:46.576Z,13.43
2017-12-06T08:52:14.539Z,16.63
2017-12-06T08:54:42.038Z,22.13
2017-12-06T08:57:09.492Z,19.37
2017-12-06T08:59:37.633Z,17.10
2017-12-06T09:02:05.082Z,24.77
2017-12-06T09:04:32.537Z,15.57
2017-12-06T09:07:00.334Z,14.03
2017-12-06T09:09:27.785Z,13.50
2017-12-06T09:11:55.258Z,14.20
2017-12-06T09:14:23.314Z,14.67
2017-12-06T09:16:50.762Z,14.37
2017-12-06T09:19:18.230Z,13.97
2017-12-06T09:21:46.307Z,10.67
2017-12-06T09:24:13.756Z,16.37
2017-12-06T09:26:41.197Z,12.83
2017-12-06T09:29:09.018Z,12.80
2017-12-06T09:31:36.453Z,6.87
2017-12-06T09:34:03.893Z,15.03
2017-12-06T09:36:31.694Z,11.13
2017-12-06T09:38:59.152Z,14.60
2017-12-06T09:41:27.018Z,15.83
2017-12-06T09:43:55.311Z,9.80
2017-12-06T09:46:22.753Z,9.53
2017-12-06T09:48:50.194Z,6.27
2017-12-06T09:51:17.983Z,7.80
2017-12-06T09:53:45.429Z,11.07
2017-12-06T09:56:12.881Z,7.87
2017-12-06T09:58:40.668Z,11.27
2017-12-06T10:01:08.115Z,10.10
2017-12-06T10:03:35.606Z,18.70
2017-12-06T10:06:03.520Z,13.43
2017-12-06T10:08:30.979Z,11.17
2017-12-06T10:10:58.422Z,8.83
2017-12-06T10:13:26.354Z,17.27
2017-12-06T10:15:53.802Z,9.60
2017-12-06T10:18:21.388Z,13.40
2017-12-06T10:20:49.035Z,10.90
2017-12-06T10:23:16.492Z,13.10
2017-12-06T10:25:43.940Z,13.27
2017-12-06T10:28:12.350Z,7.90
2017-12-06T10:30:39.805Z,15.27
2017-12-06T10:33:07.256Z,15.07
2017-12-06T10:35:35.023Z,17.17
2017-12-06T10:38:02.474Z,13.30
2017-12-06T10:40:29.930Z,16.42
2017-12-06T10:42:57.709Z,17.80
2017-12-06T10:45:25.407Z,17.40
2017-12-06T10:47:52.859Z,16.53
2017-12-06T10:50:20.710Z,20.07
2017-12-06T10:52:48.171Z,14.20
2017-12-06T10:55:15.625Z,15.13
2017-12-06T10:57:43.395Z,16.27
2017-12-06T11:00:10.849Z,14.47
2017-12-06T11:02:38.297Z,10.50
2017-12-06T11:05:06.094Z,11.17
2017-12-06T11:07:33.538Z,19.00
2017-12-06T11:10:01.053Z,10.50
2017-12-06T11:12:28.791Z,10.73
2017-12-06T11:14:56.512Z,23.60
2017-12-06T11:17:23.972Z,17.63
2017-12-06T11:19:51.768Z,12.57
2017-12-06T11:22:19.226Z,12.20
2017-12-06T11:24:46.673Z,10.17
2017-12-06T11:27:14.327Z,11.17
2017-12-06T11:29:41.802Z,13.70
2017-12-06T11:32:09.268Z,12.97
2017-12-06T11:34:36.913Z,12.37
2017-12-06T11:37:04.350Z,8.80
2017-12-06T11:39:31.795Z,14.97
2017-12-06T11:41:59.820Z,19.77
2017-12-06T11:44:27.398Z,32.40
2017-12-06T11:46:54.946Z,16.30
2017-12-06T11:49:22.809Z,14.30
2017-12-06T11:51:50.257Z,14.13
2017-12-06T11:54:17.716Z,14.87
2017-12-06T11:56:45.521Z,16.50
2017-12-06T11:59:12.985Z,12.87
2017-12-06T12:01:40.434Z,15.43
2017-12-06T12:04:08.195Z,19.43
2017-12-06T12:06:35.638Z,7.80
2017-12-06T12:09:03.282Z,10.97
2017-12-06T12:11:30.875Z,13.30
2017-12-06T12:13:58.325Z,14.83
2017-12-06T12:16:25.773Z,9.13
2017-12-06T12:18:53.875Z,13.03
2017-12-06T12:21:21.330Z,13.07
2017-12-06T12:23:48.795Z,12.90
2017-12-06T12:26:16.593Z,9.20
2017-12-06T12:28:44.040Z,12.37
2017-12-06T12:31:11.481Z,7.00
2017-12-06T12:33:39.243Z,9.53
2017-12-06T12:36:06.685Z,12.90
2017-12-06T12:38:34.177Z,11.07
2017-12-06T12:41:01.957Z,14.07
2017-12-06T12:43:29.491Z,15.47
2017-12-06T12:45:59.820Z,9.67
2017-12-06T12:48:30.302Z,15.13
2017-12-06T12:50:58.390Z,10.80
2017-12-06T12:53:25.837Z,12.00
2017-12-06T12:55:53.764Z,14.57
2017-12-06T12:58:21.227Z,8.53
2017-12-06T13:00:54.365Z,17.13
2017-12-06T13:03:22.287Z,13.60
2017-12-06T13:05:49.752Z,13.40
2017-12-06T13:08:17.220Z,37.50
2017-12-06T13:10:45.589Z,8.60
2017-12-06T13:13:13.044Z,13.60
2017-12-06T13:15:40.843Z,7.67
2017-12-06T13:18:08.582Z,8.07
2017-12-06T13:20:36.094Z,8.30
2017-12-06T13:23:03.542Z,6.40
2017-12-06T13:25:31.268Z,8.67
2017-12-06T13:27:58.719Z,11.97
2017-12-06T13:30:26.165Z,6.90
2017-12-06T13:32:53.975Z,13.13
2017-12-06T13:35:21.430Z,8.13
2017-12-06T13:37:48.882Z,6.63
2017-12-06T13:40:16.635Z,12.20
2017-12-06T13:42:44.101Z,9.53
2017-12-06T13:45:11.558Z,12.67
2017-12-06T13:47:39.314Z,6.17
2017-12-06T13:50:07.172Z,13.80
2017-12-06T13:52:34.613Z,9.30
2017-12-06T13:55:02.236Z,11.20
2017-12-06T13:57:29.682Z,5.93
2017-12-06T13:59:57.147Z,12.07
2017-12-06T14:02:25.009Z,7.53
2017-12-06T14:04:52.849Z,12.53
2017-12-06T14:07:20.300Z,7.00
2017-12-06T14:09:47.997Z,11.40
2017-12-06T14:12:15.451Z,10.80
2017-12-06T14:14:42.923Z,10.13
2017-12-06T14:17:10.998Z,14.13
2017-12-06T14:19:38.477Z,10.50
2017-12-06T14:22:05.976Z,20.20
2017-12-06T14:24:33.679Z,11.23
2017-12-06T14:27:01.146Z,25.50
2017-12-06T14:29:28.603Z,14.27
2017-12-06T14:31:56.370Z,8.90
2017-12-06T14:34:23.825Z,19.20
2017-12-06T14:36:51.269Z,16.80
2017-12-06T14:39:19.061Z,18.20
2017-12-06T14:41:46.517Z,11.70
2017-12-06T14:44:13.966Z,30.10
2017-12-06T14:46:41.745Z,11.60
2017-12-06T14:49:09.196Z,14.47
2017-12-06T14:51:37.486Z,26.40
2017-12-06T14:54:05.123Z,13.33
2017-12-06T14:56:32.583Z,11.20
2017-12-06T14:59:00.029Z,11.70
2017-12-06T15:01:27.746Z,21.57
2017-12-06T15:03:55.203Z,21.13
2017-12-06T15:06:22.657Z,17.60
2017-12-06T15:08:50.366Z,13.73
2017-12-06T15:11:17.849Z,16.87
2017-12-06T15:13:45.301Z,23.13
2017-12-06T15:16:13.425Z,19.83
2017-12-06T15:18:40.916Z,10.67
2017-12-06T15:21:08.364Z,13.47
2017-12-06T15:23:36.100Z,13.53
2017-12-06T15:26:03.547Z,9.27
2017-12-06T15:28:30.997Z,14.03
2017-12-06T15:30:58.791Z,13.60
2017-12-06T15:33:26.253Z,10.63
2017-12-06T15:35:53.712Z,13.83
2017-12-06T15:38:21.776Z,11.03
2017-12-06T15:40:49.225Z,11.40
2017-12-06T15:43:16.673Z,12.03
2017-12-06T15:45:44.737Z,21.63
2017-12-06T15:48:12.191Z,18.47
2017-12-06T15:50:39.646Z,15.20
2017-12-06T15:53:07.997Z,19.77
2017-12-06T15:55:35.448Z,13.70
2017-12-06T15:58:02.926Z,20.53
2017-12-06T16:00:30.787Z,19.53
2017-12-06T16:02:58.609Z,21.40
2017-12-06T16:05:26.117Z,19.30
2017-12-06T16:07:53.862Z,21.47
2017-12-06T16:10:21.316Z,17.33
2017-12-06T16:12:49.046Z,22.57
2017-12-06T16:15:16.743Z,19.50
2017-12-06T16:17:44.209Z,25.40
2017-12-06T16:20:11.670Z,21.40
2017-12-06T16:22:39.788Z,14.97
2017-12-06T16:25:07.299Z,15.23
2017-12-06T16:27:34.741Z,18.50
2017-12-06T16:30:02.455Z,21.50
2017-12-06T16:32:29.905Z,22.70
2017-12-06T16:35:09.861Z,23.93
2017-12-06T16:37:37.974Z,26.20
2017-12-06T16:40:06.065Z,27.83
2017-12-06T16:42:34.144Z,23.00
2017-12-06T16:45:02.769Z,11.37
2017-12-06T16:47:30.858Z,20.67
2017-12-06T16:49:58.856Z,22.87
2017-12-06T16:52:27.151Z,33.03
2017-12-06T16:54:57.082Z,21.07
2017-12-06T16:57:24.781Z,20.37
2017-12-06T16:59:52.253Z,31.63
2017-12-06T17:02:20.474Z,13.07
2017-12-06T17:04:49.111Z,28.40
2017-12-06T17:07:17.010Z,19.07
2017-12-06T17:09:44.797Z,22.33
2017-12-06T17:12:13.195Z,15.83
2017-12-06T17:14:41.350Z,26.50
2017-12-06T17:17:09.306Z,16.30
2017-12-06T17:19:37.821Z,19.00
2017-12-06T17:22:05.737Z,29.53
2017-12-06T17:24:33.200Z,21.60
2017-12-06T17:27:01.181Z,14.33
2017-12-06T17:29:40.426Z,17.53
2017-12-06T17:32:08.260Z,22.57
2017-12-06T17:34:35.729Z,17.67
2017-12-06T17:37:03.186Z,17.20
2017-12-06T17:39:30.920Z,18.97
2017-12-06T17:41:58.374Z,16.40
2017-12-06T17:44:25.840Z,13.43
2017-12-06T17:46:54.229Z,14.57
2017-12-06T17:49:21.804Z,12.37
2017-12-06T17:51:49.255Z,22.83
2017-12-06T17:54:18.511Z,12.30
2017-12-06T17:56:46.325Z,26.57
2017-12-06T17:59:13.773Z,17.63
2017-12-06T18:01:41.769Z,14.50
2017-12-06T18:04:09.225Z,22.27
2017-12-06T18:06:36.690Z,19.60
2017-12-06T18:09:04.457Z,19.07
2017-12-06T18:11:31.936Z,19.70
2017-12-06T18:13:59.386Z,18.73
2017-12-06T18:16:27.141Z,23.80
2017-12-06T18:18:54.601Z,20.00
2017-12-06T18:21:22.073Z,23.13
2017-12-06T18:23:49.826Z,23.13
2017-12-06T18:26:17.289Z,18.10
2017-12-06T18:28:44.754Z,24.10
2017-12-06T18:31:12.513Z,17.17
2017-12-06T18:33:39.965Z,19.60
2017-12-06T18:36:07.428Z,26.40
2017-12-06T18:38:36.732Z,24.23
2017-12-06T18:41:04.218Z,17.63
2017-12-06T18:43:31.670Z,18.67
2017-12-06T18:45:59.341Z,21.40
2017-12-06T18:48:26.845Z,16.37
2017-12-06T18:50:54.290Z,18.40
2017-12-06T18:53:22.108Z,20.57
2017-12-06T18:55:49.640Z,26.03
2017-12-06T18:58:19.868Z,25.20
2017-12-06T19:00:48.822Z,19.13
2017-12-06T19:03:16.458Z,20.60
2017-12-06T19:05:43.910Z,25.30
2017-12-06T19:08:11.538Z,21.43
2017-12-06T19:10:38.993Z,15.30
2017-12-06T19:13:06.443Z,14.97
2017-12-06T19:15:34.483Z,19.93
2017-12-06T19:18:02.229Z,22.73
2017-12-06T19:20:29.747Z,24.07
2017-12-06T19:22:57.383Z,19.47
2017-12-06T19:25:24.829Z,25.90
2017-12-06T19:27:52.329Z,30.27
2017-12-06T19:30:20.106Z,28.10
2017-12-06T19:32:47.693Z,19.30
2017-12-06T19:35:15.222Z,21.90
2017-12-06T19:37:43.196Z,21.80
2017-12-06T19:40:10.657Z,14.60
2017-12-06T19:42:38.120Z,21.20
2017-12-06T19:45:05.789Z,24.93
2017-12-06T19:47:33.273Z,30.27
2017-12-06T19:50:00.804Z,30.10
2017-12-06T19:52:28.545Z,23.23
2017-12-06T19:54:56.015Z,21.00
2017-12-06T19:57:23.495Z,24.60
2017-12-06T19:59:51.835Z,18.83
2017-12-06T20:02:19.349Z,19.07
2017-12-06T20:04:46.887Z,28.70
2017-12-06T20:07:15.199Z,32.77
2017-12-06T20:09:44.399Z,26.70
2017-12-06T20:12:13.355Z,30.43
2017-12-06T20:14:42.598Z,20.73
2017-12-06T20:17:11.049Z,20.10
2017-12-06T20:19:38.578Z,23.63
2017-12-06T20:22:06.378Z,27.23
2017-12-06T20:24:34.095Z,18.50
2017-12-06T20:27:01.596Z,25.83
2017-12-06T20:29:29.334Z,30.40
2017-12-06T20:31:56.894Z,22.83
2017-12-06T20:34:24.419Z,32.50
2017-12-06T20:36:52.333Z,30.07
2017-12-06T20:39:19.802Z,32.97
2017-12-06T20:41:47.257Z,33.30
2017-12-06T20:44:15.103Z,18.90
2017-12-06T20:46:42.566Z,19.00
2017-12-06T20:49:10.070Z,21.10
2017-12-06T20:51:37.808Z,26.87
2017-12-06T20:54:05.273Z,20.60
2017-12-06T20:56:32.978Z,27.70
2017-12-06T20:59:01.049Z,23.13
2017-12-06T21:01:28.568Z,27.23
2017-12-06T21:03:56.097Z,22.53
2017-12-06T21:06:24.290Z,21.73
2017-12-06T21:08:51.809Z,24.80
2017-12-06T21:11:19.277Z,25.30
2017-12-06T21:13:47.014Z,24.43
2017-12-06T21:16:14.512Z,31.73
2017-12-06T21:18:41.964Z,33.10
2017-12-06T21:21:09.695Z,30.27
2017-12-06T21:23:37.190Z,26.50
2017-12-06T21:26:05.862Z,27.67
2017-12-06T21:28:33.571Z,33.17
2017-12-06T21:31:01.025Z,25.30
2017-12-06T21:33:28.494Z,29.83
2017-12-06T21:35:56.290Z,34.43
2017-12-06T21:38:23.741Z,39.80
2017-12-06T21:40:51.194Z,26.33
2017-12-06T21:43:19.014Z,26.60
2017-12-06T21:45:46.486Z,28.80
2017-12-06T21:48:13.938Z,22.80
2017-12-06T21:50:41.971Z,29.13
2017-12-06T21:53:09.422Z,31.73
2017-12-06T21:55:36.885Z,32.97
2017-12-06T21:58:04.640Z,28.63
2017-12-06T22:00:32.094Z,34.80
2017-12-06T22:03:02.401Z,26.70
2017-12-06T22:05:29.976Z,27.87
2017-12-06T22:07:57.434Z,61.57
2017-12-06T22:10:24.881Z,33.50
2017-12-06T22:12:52.506Z,34.23
2017-12-06T22:15:19.962Z,26.10
2017-12-06T22:17:47.420Z,32.57
2017-12-06T22:20:15.166Z,34.37
2017-12-06T22:22:42.617Z,27.40
2017-12-06T22:25:10.066Z,29.53
2017-12-06T22:27:37.700Z,29.07
2017-12-06T22:30:05.156Z,32.67
2017-12-06T22:32:32.615Z,33.40
2017-12-06T22:35:00.538Z,32.57
2017-12-06T22:37:27.985Z,27.73
2017-12-06T22:39:55.433Z,33.63
2017-12-06T22:42:23.244Z,30.77
2017-12-06T22:45:02.442Z,36.67
2017-12-06T22:47:30.136Z,28.77
2017-12-06T22:49:57.580Z,30.53
2017-12-06T22:52:25.030Z,36.27
2017-12-06T22:54:53.125Z,33.17
2017-12-06T22:57:20.586Z,29.40
2017-12-06T22:59:48.044Z,31.67
2017-12-06T23:02:15.810Z,37.23
2017-12-06T23:04:43.957Z,29.60
2017-12-06T23:07:11.406Z,33.57
2017-12-06T23:09:39.746Z,29.93
2017-12-06T23:12:07.196Z,30.00
2017-12-06T23:14:34.650Z,31.23
2017-12-06T23:17:02.418Z,28.13
2017-12-06T23:19:29.874Z,33.57
2017-12-06T23:21:57.328Z,33.30
2017-12-06T23:24:25.106Z,25.93
2017-12-06T23:26:52.564Z,27.30
2017-12-06T23:29:20.400Z,26.17
2017-12-06T23:31:48.099Z,33.43
2017-12-06T23:34:15.564Z,41.57
2017-12-06T23:36:43.025Z,25.97
2017-12-06T23:39:11.093Z,42.93
2017-12-06T23:41:38.548Z,36.90
2017-12-06T23:44:06.810Z,28.73
2017-12-06T23:46:34.693Z,50.33
2017-12-06T23:49:02.145Z,37.70
2017-12-06T23:51:29.594Z,31.40
2017-12-06T23:53:57.348Z,33.23
2017-12-06T23:56:24.822Z,30.77
2017-12-06T23:58:52.289Z,39.27
